Time;durP1;ratioP1;P1;durP2;ratioP2;P2;SDS_P1;SDS_P2;PMS_P1;PMS_P2;Temp;Humidity;BMP_temperature;BMP_pressure;BME280_temperature;BME280_humidity;BME280_pressure;Samples;Min_cycle;Max_cycle;Signal;HPM_P1;HPM_P2
2022/08/27 00:01:05;;;;;;;3.45;3.25;;;18.40;99.90;;;;;;5037705;28;20028;-78
2022/08/27 00:03:30;;;;;;;3.50;3.28;;;18.30;99.90;;;;;;5037448;28;20021;-78
2022/08/27 00:05:56;;;;;;;3.08;2.88;;;18.30;99.90;;;;;;5055479;28;20053;-77
2022/08/27 00:08:21;;;;;;;3.15;2.92;;;18.30;99.90;;;;;;5052300;28;20068;-77
2022/08/27 00:10:47;;;;;;;3.60;3.30;;;18.30;99.90;;;;;;5053157;28;20029;-78
2022/08/27 00:13:14;;;;;;;5.18;3.97;;;18.30;99.90;;;;;;5053558;28;20476;-80
2022/08/27 00:15:40;;;;;;;3.33;3.13;;;18.20;99.90;;;;;;5053063;28;20096;-77
2022/08/27 00:18:06;;;;;;;3.58;3.38;;;18.20;99.90;;;;;;5052011;28;20052;-76
2022/08/27 00:20:33;;;;;;;3.38;3.17;;;18.20;99.90;;;;;;5052945;28;20344;-77
2022/08/27 00:22:58;;;;;;;3.00;2.80;;;18.30;99.90;;;;;;5054122;28;20033;-79
2022/08/27 00:25:24;;;;;;;4.65;4.13;;;18.30;99.90;;;;;;5053940;28;20036;-76
2022/08/27 00:27:51;;;;;;;3.42;3.20;;;18.30;99.90;;;;;;5056244;28;20039;-79
2022/08/27 00:30:18;;;;;;;4.05;3.75;;;18.30;99.90;;;;;;5054074;28;20029;-76
2022/08/27 00:32:44;;;;;;;3.33;3.13;;;18.30;99.90;;;;;;5060148;28;20104;-78
2022/08/27 00:35:10;;;;;;;3.30;3.08;;;18.20;99.90;;;;;;5052783;28;20045;-77
2022/08/27 00:37:36;;;;;;;3.60;3.30;;;18.30;99.90;;;;;;5034195;28;20052;-78
2022/08/27 00:40:05;;;;;;;3.80;3.50;;;18.20;99.90;;;;;;5016962;28;20021;-78
2022/08/27 00:42:31;;;;;;;3.75;3.45;;;18.30;99.90;;;;;;5034093;28;20029;-78
2022/08/27 00:44:58;;;;;;;3.92;3.60;;;18.20;99.90;;;;;;5048440;28;20670;-79
2022/08/27 00:47:26;;;;;;;4.55;4.15;;;18.20;99.90;;;;;;5053028;28;20384;-77
2022/08/27 00:49:59;;;;;;;6.20;5.60;;;18.20;99.90;;;;;;5053201;28;20067;-78
2022/08/27 00:52:43;;;;;;;7.05;6.35;;;18.10;99.90;;;;;;5054983;28;20088;-77
2022/08/27 00:55:17;;;;;;;6.80;6.10;;;18.10;99.90;;;;;;5055483;28;20429;-78
2022/08/27 00:57:44;;;;;;;8.43;7.43;;;18.00;99.90;;;;;;5056348;28;20036;-77
2022/08/27 01:00:13;;;;;;;9.35;8.05;;;18.00;99.90;;;;;;5056609;28;20535;-77
2022/08/27 01:02:40;;;;;;;7.45;6.75;;;18.00;99.90;;;;;;5057187;28;20033;-76
2022/08/27 01:05:17;;;;;;;9.10;7.32;;;17.90;99.90;;;;;;5057291;28;20017;-77
2022/08/27 01:07:46;;;;;;;8.75;7.15;;;17.90;99.90;;;;;;5055575;28;20039;-77
2022/08/27 01:10:15;;;;;;;9.50;7.10;;;17.90;99.90;;;;;;5059436;28;20021;-76
2022/08/27 01:12:41;;;;;;;7.68;6.90;;;17.90;99.90;;;;;;5060297;28;20040;-77
2022/08/27 01:15:13;;;;;;;7.15;6.45;;;18.00;99.90;;;;;;5061833;28;20045;-77
2022/08/27 01:17:40;;;;;;;7.20;6.50;;;18.00;99.90;;;;;;5054291;28;20035;-77
2022/08/27 01:20:12;;;;;;;7.55;6.38;;;18.00;99.90;;;;;;5054346;28;20471;-77
2022/08/27 01:22:50;;;;;;;6.88;6.28;;;18.00;99.90;;;;;;5058832;28;20025;-77
2022/08/27 01:25:17;;;;;;;6.22;5.63;;;18.00;99.90;;;;;;5054054;28;20021;-76
2022/08/27 01:27:44;;;;;;;7.13;6.43;;;18.00;99.90;;;;;;5053214;28;20060;-76
2022/08/27 01:30:14;;;;;;;8.20;7.38;;;18.00;99.90;;;;;;5054978;28;20048;-77
2022/08/27 01:32:42;;;;;;;10.25;7.85;;;18.00;99.90;;;;;;5054898;28;20037;-77
2022/08/27 01:35:10;;;;;;;7.55;6.95;;;18.00;99.90;;;;;;5054644;28;20089;-78
2022/08/27 01:37:38;;;;;;;8.13;7.28;;;17.90;99.90;;;;;;5053294;28;20095;-77
2022/08/27 01:40:05;;;;;;;7.45;6.75;;;18.00;99.90;;;;;;5054564;28;20040;-78
2022/08/27 01:42:37;;;;;;;7.15;6.45;;;18.00;99.90;;;;;;5055977;28;20021;-77
2022/08/27 01:45:11;;;;;;;9.20;8.30;;;18.00;99.90;;;;;;5056068;28;20372;-77
2022/08/27 01:47:37;;;;;;;8.55;7.72;;;17.90;99.90;;;;;;5054760;28;20021;-77
2022/08/27 01:50:10;;;;;;;10.68;7.75;;;18.00;99.90;;;;;;5053872;28;20044;-77
2022/08/27 01:52:36;;;;;;;8.52;7.55;;;18.00;99.90;;;;;;5054301;28;20070;-76
2022/08/27 01:55:04;;;;;;;7.65;6.93;;;18.10;99.90;;;;;;5055199;28;20028;-77
2022/08/27 01:57:31;;;;;;;8.02;7.22;;;18.10;99.90;;;;;;5035716;28;20086;-77
2022/08/27 01:59:57;;;;;;;8.23;7.43;;;18.20;99.90;;;;;;5036977;28;20021;-77
2022/08/27 02:02:22;;;;;;;8.52;7.45;;;18.20;99.90;;;;;;5054498;28;20051;-77
2022/08/27 02:04:51;;;;;;;8.65;7.80;;;18.30;99.90;;;;;;5054122;28;20064;-77
2022/08/27 02:07:17;;;;;;;9.70;7.85;;;18.30;99.90;;;;;;5052050;28;20014;-77
2022/08/27 02:09:43;;;;;;;9.63;7.97;;;18.30;99.90;;;;;;5053762;28;20027;-76
2022/08/27 02:12:08;;;;;;;8.75;7.95;;;18.30;99.90;;;;;;5035305;28;20033;-77
2022/08/27 02:14:34;;;;;;;10.18;8.38;;;18.30;99.90;;;;;;5054193;28;20471;-77
2022/08/27 02:17:00;;;;;;;9.90;8.75;;;18.30;99.90;;;;;;5055530;28;20090;-77
2022/08/27 02:19:26;;;;;;;9.27;8.38;;;18.30;99.90;;;;;;5036576;28;20051;-77
2022/08/27 02:21:52;;;;;;;9.00;8.00;;;18.30;99.90;;;;;;5053803;28;20029;-77
2022/08/27 02:24:18;;;;;;;12.30;9.57;;;18.40;99.90;;;;;;5053682;28;20025;-77
2022/08/27 02:26:43;;;;;;;13.38;9.82;;;18.40;99.90;;;;;;5052876;28;20033;-76
2022/08/27 02:29:09;;;;;;;10.52;9.43;;;18.30;99.90;;;;;;5053255;28;20083;-76
2022/08/27 02:31:35;;;;;;;9.77;8.75;;;18.30;99.90;;;;;;5053059;28;20485;-77
2022/08/27 02:34:02;;;;;;;10.13;9.13;;;18.30;99.90;;;;;;5052474;28;20033;-76
2022/08/27 02:36:28;;;;;;;9.65;8.73;;;18.30;99.90;;;;;;5051534;28;20139;-78
2022/08/27 02:38:55;;;;;;;11.27;9.52;;;18.30;99.90;;;;;;5052855;28;20028;-76
2022/08/27 02:41:21;;;;;;;9.50;8.50;;;18.30;99.90;;;;;;5052626;28;20074;-76
2022/08/27 02:43:47;;;;;;;9.30;8.30;;;18.30;99.90;;;;;;5052433;28;20025;-77
2022/08/27 02:46:13;;;;;;;10.07;9.00;;;18.40;99.90;;;;;;5043915;28;20025;-78
2022/08/27 02:48:39;;;;;;;10.18;9.07;;;18.30;99.90;;;;;;5051818;28;20437;-77
2022/08/27 02:51:06;;;;;;;10.68;8.90;;;18.30;99.90;;;;;;5052475;28;20032;-77
2022/08/27 02:53:34;;;;;;;10.27;9.25;;;18.30;99.90;;;;;;5052170;28;20029;-77
2022/08/27 02:55:59;;;;;;;13.00;9.93;;;18.30;99.90;;;;;;5052042;28;20051;-76
2022/08/27 02:58:25;;;;;;;10.93;9.02;;;18.40;99.90;;;;;;5052076;28;20048;-77
2022/08/27 03:00:51;;;;;;;13.45;8.50;;;18.40;99.90;;;;;;5052070;28;20029;-77
2022/08/27 03:03:17;;;;;;;9.13;7.75;;;18.30;99.90;;;;;;5053288;28;20021;-77
2022/08/27 03:05:42;;;;;;;8.93;8.02;;;18.40;99.90;;;;;;5053634;28;20025;-77
2022/08/27 03:08:08;;;;;;;9.60;7.60;;;18.30;99.90;;;;;;5035075;28;20025;-77
2022/08/27 03:10:34;;;;;;;14.93;8.45;;;18.30;99.90;;;;;;5054917;28;20025;-77
2022/08/27 03:13:00;;;;;;;8.20;7.32;;;18.20;99.90;;;;;;5054783;28;20678;-78
2022/08/27 03:15:26;;;;;;;7.13;6.28;;;18.20;99.90;;;;;;5052781;28;20143;-77
2022/08/27 03:20:41;;;;;;;7.60;6.85;;;18.10;99.90;;;;;;5052791;28;20457;-77
2022/08/27 03:23:09;;;;;;;7.90;7.05;;;18.10;99.90;;;;;;5053035;28;20092;-77
2022/08/27 03:25:35;;;;;;;7.90;6.57;;;18.00;99.90;;;;;;5052556;28;20036;-77
2022/08/27 03:28:01;;;;;;;8.18;7.38;;;18.00;99.90;;;;;;5051804;28;20100;-77
2022/08/27 03:30:27;;;;;;;6.78;6.15;;;18.00;99.90;;;;;;5053110;28;20094;-78
2022/08/27 03:32:53;;;;;;;7.70;6.60;;;18.00;99.90;;;;;;5052734;28;20055;-77
2022/08/27 03:35:20;;;;;;;8.07;6.43;;;18.00;99.90;;;;;;5053110;28;20067;-77
2022/08/27 03:37:46;;;;;;;8.55;6.45;;;17.90;99.90;;;;;;5032893;28;20021;-77
2022/08/27 03:40:13;;;;;;;7.13;6.43;;;17.90;99.90;;;;;;5051424;28;20033;-77
2022/08/27 03:42:40;;;;;;;6.65;6.03;;;17.90;99.90;;;;;;5051538;28;20029;-78
2022/08/27 03:45:07;;;;;;;8.43;6.70;;;18.00;99.90;;;;;;5052403;28;20062;-77
2022/08/27 03:47:33;;;;;;;8.10;6.15;;;18.00;99.90;;;;;;5053982;28;20027;-77
2022/08/27 03:49:59;;;;;;;6.97;6.25;;;18.00;99.90;;;;;;5052570;28;20036;-78
2022/08/27 03:52:26;;;;;;;8.35;7.53;;;18.00;99.90;;;;;;5052284;28;20029;-77
2022/08/27 03:54:52;;;;;;;7.03;6.43;;;18.10;99.90;;;;;;5055225;28;20025;-78
2022/08/27 03:57:17;;;;;;;7.57;6.88;;;18.10;99.90;;;;;;5050804;28;20119;-77
2022/08/27 03:59:43;;;;;;;10.60;7.22;;;18.10;99.90;;;;;;5055560;28;20104;-81
2022/08/27 04:02:09;;;;;;;8.25;7.45;;;18.20;99.90;;;;;;5051311;28;20032;-77
2022/08/27 04:04:35;;;;;;;9.15;8.20;;;18.20;99.90;;;;;;5052253;28;20021;-78
2022/08/27 04:07:00;;;;;;;8.88;8.00;;;18.20;99.90;;;;;;5046818;28;20022;-77
2022/08/27 04:09:26;;;;;;;8.23;7.43;;;18.10;99.90;;;;;;5038865;28;20034;-79
2022/08/27 04:11:52;;;;;;;11.57;7.80;;;18.10;99.90;;;;;;5032714;28;20523;-77
2022/08/27 04:14:18;;;;;;;12.57;8.60;;;18.10;99.90;;;;;;5033422;28;20467;-77
2022/08/27 04:16:43;;;;;;;8.60;7.78;;;18.20;99.90;;;;;;5050874;28;20024;-77
2022/08/27 04:19:11;;;;;;;10.88;8.88;;;18.20;99.90;;;;;;5051456;28;20029;-77
2022/08/27 04:21:37;;;;;;;11.93;7.80;;;18.20;99.90;;;;;;5051592;28;20074;-78
2022/08/27 04:24:03;;;;;;;7.97;7.18;;;18.20;99.90;;;;;;5033435;28;20025;-78
2022/08/27 04:26:28;;;;;;;7.07;6.45;;;18.20;99.90;;;;;;5013466;28;20029;-77
2022/08/27 04:28:56;;;;;;;9.80;7.72;;;18.20;99.90;;;;;;5015511;28;20026;-76
2022/08/27 04:31:22;;;;;;;7.25;6.55;;;18.20;99.90;;;;;;5036704;28;20026;-76
2022/08/27 04:33:48;;;;;;;7.20;6.47;;;18.20;99.90;;;;;;5017170;28;20620;-76
2022/08/27 04:36:14;;;;;;;7.68;6.80;;;18.20;99.90;;;;;;5079979;22;20802;-86
2022/08/27 04:38:58;;;;;;;7.57;6.72;;;18.20;99.90;;;;;;5083025;28;20028;-86
2022/08/27 04:41:26;;;;;;;10.70;6.28;;;18.20;99.90;;;;;;5080460;28;20071;-84
2022/08/27 04:43:56;;;;;;;9.07;6.95;;;18.20;99.90;;;;;;5069447;28;20107;-83
2022/08/27 04:46:24;;;;;;;9.25;6.43;;;18.10;99.90;;;;;;5049449;28;20036;-84
2022/08/27 04:48:54;;;;;;;6.50;5.90;;;18.20;99.90;;;;;;5062365;28;20018;-85
2022/08/27 04:51:21;;;;;;;7.35;5.90;;;18.20;99.90;;;;;;5043433;28;20513;-85
2022/08/27 04:53:48;;;;;;;7.47;6.43;;;18.20;99.90;;;;;;5046276;28;20560;-85
2022/08/27 04:56:16;;;;;;;8.68;5.88;;;18.10;99.90;;;;;;5044204;28;20495;-84
2022/08/27 04:58:42;;;;;;;8.38;6.43;;;18.10;99.90;;;;;;5043229;28;20039;-85
2022/08/27 05:01:08;;;;;;;7.50;6.07;;;18.10;99.90;;;;;;5045137;28;20032;-85
2022/08/27 05:03:34;;;;;;;7.03;5.97;;;18.20;99.90;;;;;;5045164;28;20035;-85
2022/08/27 05:06:04;;;;;;;9.02;7.28;;;18.20;99.90;;;;;;5060542;28;20056;-85
2022/08/27 05:08:31;;;;;;;7.50;6.20;;;18.20;99.90;;;;;;5064115;28;20061;-85
2022/08/27 05:10:59;;;;;;;7.28;6.55;;;18.30;99.90;;;;;;5043460;28;20045;-84
2022/08/27 05:13:25;;;;;;;7.53;6.57;;;18.30;99.90;;;;;;5062184;28;20025;-85
2022/08/27 05:16:05;;;;;;;8.18;6.18;;;18.30;99.90;;;;;;5042906;28;20017;-85
2022/08/27 05:18:30;;;;;;;6.75;6.05;;;18.30;99.90;;;;;;5062989;28;20033;-85
2022/08/27 05:20:57;;;;;;;8.18;7.30;;;18.40;99.90;;;;;;5044309;28;20018;-85
2022/08/27 05:23:23;;;;;;;7.35;6.53;;;18.50;99.90;;;;;;5040866;28;20539;-85
2022/08/27 05:25:50;;;;;;;9.35;8.15;;;18.50;99.90;;;;;;5023379;28;20025;-85
2022/08/27 05:28:43;;;;;;;9.40;8.38;;;18.60;99.90;;;;;;5022643;28;20075;-85
2022/08/27 05:31:10;;;;;;;7.93;7.22;;;18.60;99.90;;;;;;5037919;28;20038;-85
2022/08/27 05:33:37;;;;;;;6.88;6.28;;;18.60;99.90;;;;;;5023573;28;20059;-85
2022/08/27 05:36:04;;;;;;;6.03;5.53;;;18.60;99.90;;;;;;5027314;28;20028;-86
2022/08/27 05:38:31;;;;;;;6.15;5.65;;;18.60;99.90;;;;;;5059573;28;20395;-85
2022/08/27 05:41:09;;;;;;;7.53;6.82;;;18.70;99.90;;;;;;5061626;28;20024;-86
2022/08/27 05:43:37;;;;;;;7.97;6.85;;;18.80;99.90;;;;;;5041175;28;20017;-85
2022/08/27 05:46:07;;;;;;;7.03;6.32;;;18.80;99.90;;;;;;5042267;28;20051;-86
2022/08/27 05:48:34;;;;;;;8.18;6.85;;;18.80;99.90;;;;;;5040125;28;20476;-85
2022/08/27 05:51:27;;;;;;;6.35;5.57;;;18.90;99.90;;;;;;5043399;28;20021;-85
2022/08/27 05:54:10;;;;;;;8.38;6.50;;;19.00;99.90;;;;;;5046744;28;20024;-86
2022/08/27 05:56:37;;;;;;;8.43;6.70;;;19.00;99.90;;;;;;5044771;28;20029;-86
2022/08/27 06:01:50;;;;;;;7.15;5.70;;;18.90;99.90;;;;;;5062798;28;20032;-85
2022/08/27 06:04:17;;;;;;;6.30;5.70;;;19.00;99.90;;;;;;5047690;28;20506;-85
2022/08/27 06:06:43;;;;;;;6.05;5.45;;;19.00;99.90;;;;;;5066171;28;20143;-86
2022/08/27 06:09:12;;;;;;;7.63;5.72;;;19.10;99.90;;;;;;5058013;28;20063;-85
2022/08/27 06:11:37;;;;;;;6.10;5.43;;;19.10;99.90;;;;;;5046381;28;20039;-86
2022/08/27 06:14:04;;;;;;;6.00;5.40;;;19.20;99.90;;;;;;5042100;28;20021;-85
2022/08/27 06:16:30;;;;;;;5.60;5.10;;;19.20;99.90;;;;;;5041149;28;20052;-85
2022/08/27 06:18:56;;;;;;;5.90;5.30;;;19.30;99.90;;;;;;5068118;28;20033;-86
2022/08/27 06:21:23;;;;;;;4.80;4.40;;;19.30;99.90;;;;;;5059948;28;20021;-86
2022/08/27 06:23:49;;;;;;;4.78;4.38;;;19.40;99.90;;;;;;5065205;28;20523;-85
2022/08/27 06:26:17;;;;;;;5.97;5.47;;;19.50;99.90;;;;;;5043547;28;20020;-86
2022/08/27 06:28:43;;;;;;;5.22;4.72;;;19.50;99.90;;;;;;5041165;28;20491;-85
2022/08/27 06:31:15;;;;;;;4.95;4.43;;;19.60;99.90;;;;;;5042991;28;20074;-85
2022/08/27 06:33:42;;;;;;;4.32;3.95;;;19.60;99.90;;;;;;5042022;28;20078;-85
2022/08/27 06:36:11;;;;;;;4.47;4.07;;;19.70;99.90;;;;;;5042147;28;20048;-85
2022/08/27 06:38:37;;;;;;;4.18;3.88;;;19.80;99.90;;;;;;5044339;28;20041;-85
2022/08/27 06:41:08;;;;;;;3.53;3.22;;;19.90;99.90;;;;;;5044390;28;20017;-85
2022/08/27 06:43:36;;;;;;;4.10;3.70;;;20.00;99.90;;;;;;5059742;28;20076;-85
2022/08/27 06:46:05;;;;;;;3.60;3.25;;;20.20;99.90;;;;;;5044698;28;20060;-86
2022/08/27 06:48:31;;;;;;;4.03;3.72;;;20.40;99.90;;;;;;5048870;28;20467;-85
2022/08/27 06:50:58;;;;;;;6.57;5.97;;;20.60;99.90;;;;;;5044086;28;20103;-86
2022/08/27 06:53:24;;;;;;;7.43;6.72;;;20.80;99.90;;;;;;5041190;28;20025;-86
2022/08/27 06:55:50;;;;;;;6.35;5.75;;;20.80;99.90;;;;;;5043493;28;20108;-85
2022/08/27 06:58:17;;;;;;;6.32;5.72;;;20.80;99.90;;;;;;5059615;28;20048;-86
2022/08/27 07:00:43;;;;;;;6.00;5.40;;;20.80;99.90;;;;;;5047297;28;20048;-84
2022/08/27 07:03:10;;;;;;;6.75;5.90;;;20.80;99.90;;;;;;5042306;28;20029;-84
2022/08/27 07:05:38;;;;;;;7.57;6.88;;;20.90;99.90;;;;;;5041047;28;20029;-85
2022/08/27 07:08:06;;;;;;;8.05;6.55;;;20.70;99.90;;;;;;5062173;28;20021;-85
2022/08/27 07:10:33;;;;;;;7.15;6.45;;;20.70;99.90;;;;;;5041249;28;20025;-85
2022/08/27 07:12:59;;;;;;;9.63;7.28;;;20.60;99.90;;;;;;5040282;28;20028;-85
2022/08/27 07:15:26;;;;;;;8.32;7.55;;;20.40;99.90;;;;;;5041415;28;20044;-85
2022/08/27 07:17:52;;;;;;;7.45;6.70;;;20.30;99.90;;;;;;5061283;28;20383;-85
2022/08/27 07:20:19;;;;;;;7.80;7.10;;;20.20;99.90;;;;;;5040556;28;20040;-85
2022/08/27 07:22:46;;;;;;;7.70;7.00;;;20.20;99.90;;;;;;5040369;28;20508;-85
2022/08/27 07:25:20;;;;;;;7.47;6.78;;;20.20;99.90;;;;;;5040932;28;20032;-85
2022/08/27 07:27:47;;;;;;;7.38;6.22;;;20.20;99.90;;;;;;5059040;28;20086;-85
2022/08/27 07:30:14;;;;;;;8.05;6.80;;;20.30;99.90;;;;;;5045397;28;20021;-85
2022/08/27 07:32:42;;;;;;;8.27;6.30;;;20.30;99.90;;;;;;5046513;28;20110;-85
2022/08/27 07:35:08;;;;;;;7.57;6.68;;;20.40;99.90;;;;;;5076679;28;20067;-86
2022/08/27 07:37:39;;;;;;;7.80;6.80;;;20.40;99.90;;;;;;5058608;28;20209;-84
2022/08/27 07:40:08;;;;;;;7.32;6.63;;;20.40;99.90;;;;;;5059141;28;20029;-85
2022/08/27 07:45:19;;;;;;;5.82;5.25;;;20.30;99.90;;;;;;5076888;28;20067;-85
2022/08/27 07:47:45;;;;;;;6.00;5.50;;;20.30;99.90;;;;;;5059010;28;20092;-86
2022/08/27 07:50:11;;;;;;;5.22;4.78;;;20.30;99.90;;;;;;5058894;28;20025;-86
2022/08/27 07:52:37;;;;;;;5.40;4.90;;;20.50;99.90;;;;;;5069971;28;20027;-85
2022/08/27 07:55:03;;;;;;;4.65;4.25;;;20.70;99.90;;;;;;5057357;28;20048;-85
2022/08/27 07:57:30;;;;;;;5.22;4.72;;;21.00;99.90;;;;;;5042373;28;20061;-85
2022/08/27 07:59:56;;;;;;;6.00;4.57;;;21.20;99.90;;;;;;5058102;28;20037;-85
2022/08/27 08:02:22;;;;;;;6.70;5.22;;;21.50;99.90;;;;;;5060174;28;20143;-85
2022/08/27 08:04:47;;;;;;;4.43;4.03;;;21.70;99.90;;;;;;5046441;28;20128;-85
2022/08/27 08:07:13;;;;;;;4.75;4.35;;;21.90;99.90;;;;;;5047403;28;20067;-85
2022/08/27 08:09:39;;;;;;;5.03;4.63;;;22.30;99.90;;;;;;5047180;28;20029;-85
2022/08/27 08:12:06;;;;;;;4.68;4.05;;;22.70;99.90;;;;;;5044200;28;20028;-85
2022/08/27 08:14:32;;;;;;;4.90;4.50;;;23.00;99.30;;;;;;5044881;28;20104;-85
2022/08/27 08:17:00;;;;;;;5.30;4.80;;;23.10;98.40;;;;;;5046730;28;20445;-85
2022/08/27 08:19:26;;;;;;;6.78;4.90;;;23.30;96.40;;;;;;5063881;28;20112;-84
2022/08/27 08:21:52;;;;;;;6.03;4.72;;;23.30;95.20;;;;;;5045044;28;20405;-85
2022/08/27 08:24:18;;;;;;;7.82;5.60;;;23.20;94.30;;;;;;5061909;28;20170;-85
2022/08/27 08:26:44;;;;;;;5.57;4.00;;;23.10;93.80;;;;;;5045234;28;20032;-85
2022/08/27 08:29:12;;;;;;;4.70;4.30;;;23.10;93.90;;;;;;5062408;28;20025;-85
2022/08/27 08:31:40;;;;;;;5.07;4.57;;;23.00;93.90;;;;;;5061841;28;20025;-84
2022/08/27 08:34:06;;;;;;;4.25;3.95;;;23.00;93.60;;;;;;5063383;28;20055;-85
2022/08/27 08:36:32;;;;;;;4.00;3.70;;;23.10;93.90;;;;;;5044600;28;20032;-85
2022/08/27 08:38:58;;;;;;;5.38;4.22;;;23.20;93.50;;;;;;5062877;28;20033;-85
2022/08/27 08:41:37;;;;;;;4.60;4.20;;;23.20;92.50;;;;;;5062144;28;20034;-85
2022/08/27 08:44:15;;;;;;;5.80;4.18;;;23.00;92.80;;;;;;5062936;28;20029;-85
2022/08/27 08:47:02;;;;;;;4.55;3.72;;;22.90;93.30;;;;;;5045638;28;20105;-85
2022/08/27 08:49:33;;;;;;;7.85;4.25;;;22.70;94.10;;;;;;5046654;28;20474;-85
2022/08/27 08:52:13;;;;;;;5.97;4.40;;;22.50;93.80;;;;;;5052216;28;20550;-85
2022/08/27 08:54:39;;;;;;;8.55;4.80;;;22.40;94.50;;;;;;5066410;28;20033;-85
2022/08/27 08:57:13;;;;;;;4.28;3.97;;;22.20;94.10;;;;;;5064429;28;20010;-84
2022/08/27 08:59:44;;;;;;;4.50;4.10;;;22.10;94.70;;;;;;5064549;28;20081;-84
2022/08/27 09:02:13;;;;;;;5.72;4.50;;;22.20;95.10;;;;;;5051520;28;20041;-86
2022/08/27 09:04:40;;;;;;;4.88;3.97;;;22.20;95.30;;;;;;5052722;28;20107;-85
2022/08/27 09:07:25;;;;;;;4.55;4.15;;;22.20;94.40;;;;;;5059722;28;20025;-86
2022/08/27 09:10:14;;;;;;;4.32;3.50;;;22.30;94.80;;;;;;5059294;28;20028;-86
2022/08/27 09:12:40;;;;;;;5.15;4.65;;;22.60;94.40;;;;;;5072517;28;20021;-86
2022/08/27 09:15:17;;;;;;;4.22;3.53;;;22.90;92.80;;;;;;5051575;28;20016;-85
2022/08/27 09:17:44;;;;;;;3.60;3.25;;;23.10;92.70;;;;;;5056685;28;20025;-86
2022/08/27 09:20:11;;;;;;;3.50;3.20;;;23.30;92.50;;;;;;5075372;28;20036;-86
2022/08/27 09:23:00;;;;;;;4.25;3.85;;;23.60;91.90;;;;;;5057366;28;20025;-86
2022/08/27 09:25:36;;;;;;;4.95;4.25;;;23.90;91.00;;;;;;5056494;28;20073;-84
2022/08/27 09:29:14;;;;;;;4.07;3.63;;;23.90;89.80;;;;;;5075279;28;20035;-86
2022/08/27 09:30:54;;;;;;;3.97;3.47;;;23.80;90.00;;;;;;5077827;28;20025;-86
2022/08/27 09:33:20;;;;;;;4.38;3.50;;;23.70;90.30;;;;;;5058750;28;20020;-86
2022/08/27 09:35:46;;;;;;;3.97;3.60;;;23.70;90.30;;;;;;5074009;28;20032;-86
2022/08/27 09:38:28;;;;;;;4.00;3.35;;;23.70;90.50;;;;;;5055781;28;20025;-85
2022/08/27 09:40:59;;;;;;;4.25;3.95;;;23.80;88.30;;;;;;5048981;28;20013;-86
2022/08/27 09:43:27;;;;;;;3.55;3.25;;;23.70;88.70;;;;;;5042092;28;20020;-86
2022/08/27 09:46:04;;;;;;;3.67;3.38;;;23.80;89.20;;;;;;5041163;28;20116;-87
2022/08/27 09:48:32;;;;;;;3.63;3.35;;;24.10;88.50;;;;;;5059250;28;20562;-86
2022/08/27 09:51:07;;;;;;;3.95;3.58;;;24.40;87.70;;;;;;5042093;28;20036;-86
2022/08/27 09:53:43;;;;;;;3.13;2.92;;;24.60;86.50;;;;;;5048166;28;20021;-86
2022/08/27 09:56:20;;;;;;;4.90;3.70;;;24.80;86.20;;;;;;5054570;28;20029;-86
2022/08/27 09:58:54;;;;;;;3.90;3.30;;;24.90;82.00;;;;;;5052417;28;20503;-86
2022/08/27 10:01:27;;;;;;;4.50;3.03;;;24.90;83.10;;;;;;5042410;28;20025;-86
2022/08/27 10:04:12;;;;;;;4.28;3.22;;;25.00;82.70;;;;;;5045733;28;20036;-86
2022/08/27 10:06:46;;;;;;;4.05;3.60;;;25.00;80.10;;;;;;5067981;28;20039;-86
2022/08/27 10:09:40;;;;;;;6.22;3.58;;;24.90;80.60;;;;;;5071891;28;20025;-86
2022/08/27 10:12:10;;;;;;;3.42;3.10;;;25.10;80.10;;;;;;5041452;28;20520;-86
2022/08/27 10:14:42;;;;;;;3.60;3.03;;;25.30;79.60;;;;;;5041472;28;20112;-87
2022/08/27 10:17:12;;;;;;;3.60;3.20;;;25.50;79.00;;;;;;5041131;28;20535;-85
2022/08/27 10:20:17;;;;;;;3.53;3.22;;;25.60;77.90;;;;;;5041367;28;20033;-85
2022/08/27 10:22:55;;;;;;;3.75;3.45;;;25.40;76.40;;;;;;5040972;28;20117;-84
2022/08/27 10:25:34;;;;;;;4.63;3.67;;;25.00;77.80;;;;;;5059158;28;20024;-84
2022/08/27 10:28:16;;;;;;;5.60;4.15;;;24.70;79.50;;;;;;5042208;28;20033;-85
2022/08/27 10:31:08;;;;;;;3.33;3.13;;;24.50;79.00;;;;;;5041115;28;20033;-85
2022/08/27 10:34:05;;;;;;;5.07;3.75;;;24.30;80.90;;;;;;5057988;28;20071;-85
2022/08/27 10:36:45;;;;;;;5.72;3.72;;;24.30;80.80;;;;;;5050146;22;20135;-77
2022/08/27 10:39:44;;;;;;;3.75;3.45;;;24.20;80.90;;;;;;5052489;28;20089;-76
2022/08/27 10:42:41;;;;;;;4.57;3.50;;;24.20;81.70;;;;;;5052442;28;20021;-77
2022/08/27 10:45:33;;;;;;;5.85;4.10;;;24.40;79.10;;;;;;5045993;28;20044;-76
2022/08/27 10:47:58;;;;;;;;;;;24.40;78.80;;;;;;5046586;28;20581;-77
2022/08/27 10:50:41;;;;;;;4.40;3.42;;;24.30;79.20;;;;;;5052644;28;20003;-77
2022/08/27 10:53:42;;;;;;;8.07;4.00;;;24.40;79.70;;;;;;5052338;28;20554;-77
2022/08/27 10:56:29;;;;;;;3.50;3.20;;;24.60;78.70;;;;;;5051236;28;20055;-77
2022/08/27 10:59:20;;;;;;;4.10;3.20;;;25.00;78.70;;;;;;5052415;28;20029;-77
2022/08/27 11:02:01;;;;;;;5.88;3.65;;;25.20;77.20;;;;;;5050612;28;20025;-76
2022/08/27 11:04:40;;;;;;;4.03;3.65;;;25.20;75.00;;;;;;5042917;28;20041;-76
2022/08/27 11:07:10;;;;;;;3.65;3.05;;;25.30;75.70;;;;;;5045841;28;20022;-77
2022/08/27 11:09:45;;;;;;;3.90;3.60;;;25.50;75.30;;;;;;5032598;28;20090;-76
2022/08/27 11:12:19;;;;;;;4.88;3.60;;;26.00;73.40;;;;;;5032500;28;20028;-77
2022/08/27 11:14:57;;;;;;;4.32;3.38;;;25.90;71.30;;;;;;5040072;28;20017;-77
2022/08/27 11:17:38;;;;;;;4.78;4.30;;;25.60;72.60;;;;;;5042941;28;20115;-75
2022/08/27 11:20:13;;;;;;;4.85;3.15;;;25.30;73.20;;;;;;5051656;28;20036;-76
2022/08/27 11:22:53;;;;;;;4.72;4.20;;;24.90;74.30;;;;;;5051832;28;20566;-76
2022/08/27 11:25:39;;;;;;;10.98;4.30;;;24.60;74.50;;;;;;5050994;28;20029;-76
2022/08/27 11:28:07;;;;;;;5.07;4.20;;;24.30;75.30;;;;;;5039416;28;20037;-76
2022/08/27 11:30:51;;;;;;;4.18;3.30;;;24.10;76.50;;;;;;5052379;28;20033;-76
2022/08/27 11:33:30;;;;;;;4.68;3.50;;;23.90;78.30;;;;;;5052396;28;20502;-76
2022/08/27 11:36:31;;;;;;;4.07;3.17;;;23.60;78.80;;;;;;5047417;28;20506;-77
2022/08/27 11:39:09;;;;;;;7.43;3.50;;;23.40;80.30;;;;;;4954265;28;20027;-77
2022/08/27 11:42:11;;;;;;;4.97;3.75;;;23.40;79.80;;;;;;5022001;28;20037;-77
2022/08/27 11:44:43;;;;;;;5.25;3.33;;;23.70;80.10;;;;;;5041165;28;20025;-75
2022/08/27 11:47:10;;;;;;;5.88;3.53;;;24.00;78.20;;;;;;5043147;28;20049;-75
2022/08/27 11:49:49;;;;;;;4.10;3.03;;;24.20;76.40;;;;;;5051475;28;20567;-76
2022/08/27 11:52:38;;;;;;;3.90;3.05;;;24.50;76.20;;;;;;5051349;28;20017;-76
2022/08/27 11:55:14;;;;;;;3.30;3.00;;;25.10;74.60;;;;;;5033175;28;20094;-77
2022/08/27 11:57:39;;;;;;;3.10;2.90;;;25.50;72.90;;;;;;5051172;28;20033;-77
2022/08/27 12:00:26;;;;;;;3.83;2.80;;;25.70;69.80;;;;;;5051237;28;20040;-75
2022/08/27 12:02:59;;;;;;;4.05;2.30;;;26.00;70.20;;;;;;5033268;28;20387;-77
2022/08/27 12:05:43;;;;;;;3.72;2.67;;;26.50;67.90;;;;;;5051255;28;20475;-76
2022/08/27 12:08:27;;;;;;;3.47;2.58;;;26.80;67.10;;;;;;5036615;28;20045;-77
2022/08/27 12:11:32;;;;;;;3.70;2.50;;;27.40;64.70;;;;;;5031067;28;20022;-77
2022/08/27 12:14:23;;;;;;;3.42;3.13;;;27.90;63.70;;;;;;5033838;28;20025;-77
2022/08/27 12:17:00;;;;;;;3.40;3.15;;;27.50;63.40;;;;;;5038965;28;20018;-77
2022/08/27 12:20:00;;;;;;;7.57;3.30;;;27.00;65.10;;;;;;5033417;28;20032;-77
2022/08/27 12:25:33;;;;;;;7.47;3.15;;;25.80;67.60;;;;;;5051253;28;20024;-77
2022/08/27 12:28:05;;;;;;;2.70;2.50;;;25.30;69.00;;;;;;5050262;28;20025;-77
2022/08/27 12:30:31;;;;;;;;;;;25.10;70.10;;;;;;5039449;28;20105;-77
2022/08/27 12:32:58;;;;;;;3.75;3.10;;;25.00;70.70;;;;;;5030819;28;20365;-77
2022/08/27 12:35:41;;;;;;;3.38;2.90;;;25.10;70.30;;;;;;5030890;28;20034;-78
2022/08/27 12:38:22;;;;;;;3.47;2.70;;;25.10;70.80;;;;;;5035609;28;20028;-77
2022/08/27 12:40:51;;;;;;;3.60;3.05;;;25.10;70.50;;;;;;5050906;28;20078;-77
2022/08/27 12:43:24;;;;;;;4.13;2.97;;;25.40;69.50;;;;;;5050653;28;20123;-76
2022/08/27 12:45:56;;;;;;;4.25;2.83;;;25.80;67.60;;;;;;5050501;28;20021;-78
2022/08/27 12:48:55;;;;;;;3.13;2.70;;;26.20;67.20;;;;;;5033448;28;20088;-78
2022/08/27 12:51:22;;;;;;;3.08;2.85;;;26.40;66.50;;;;;;5018674;28;20026;-77
2022/08/27 12:54:22;;;;;;;4.80;3.33;;;26.30;66.60;;;;;;5034821;28;20408;-77
2022/08/27 12:56:59;;;;;;;3.45;2.55;;;26.10;66.00;;;;;;5037951;28;20036;-77
2022/08/27 12:59:52;;;;;;;6.35;3.20;;;25.80;66.30;;;;;;5034949;28;20460;-76
2022/08/27 13:02:56;;;;;;;3.35;3.05;;;25.50;66.40;;;;;;5034413;28;20021;-76
2022/08/27 13:05:23;;;;;;;5.68;3.80;;;25.50;67.80;;;;;;5033788;28;20034;-77
2022/08/27 13:07:51;;;;;;;3.90;2.90;;;25.50;68.00;;;;;;5044547;28;20022;-77
2022/08/27 13:10:27;;;;;;;2.97;2.78;;;25.50;68.90;;;;;;5036284;28;20075;-77
2022/08/27 13:13:06;;;;;;;3.40;3.10;;;25.90;69.40;;;;;;5054218;28;20487;-77
2022/08/27 13:15:33;;;;;;;3.78;3.35;;;26.40;68.30;;;;;;5052377;28;20032;-77
2022/08/27 13:18:01;;;;;;;5.55;3.40;;;26.60;66.50;;;;;;5041709;28;20039;-78